createdAt,value
2018-12-01T00:00:01.833Z,998.73
2018-12-01T00:05:02.122Z,998.8
2018-12-01T00:10:01.358Z,998.78
2018-12-01T00:15:01.591Z,998.84
2018-12-01T00:20:01.877Z,998.88
2018-12-01T00:25:02.134Z,998.85
2018-12-01T00:30:01.402Z,998.84
2018-12-01T00:35:01.719Z,998.88
2018-12-01T00:40:02.005Z,998.87
2018-12-01T00:45:01.287Z,998.85
2018-12-01T00:50:01.562Z,998.82
2018-12-01T00:55:01.833Z,998.79
2018-12-01T01:00:02.109Z,998.82
2018-12-01T01:05:01.416Z,998.87
2018-12-01T01:10:01.707Z,998.85
2018-12-01T01:15:01.944Z,998.88
2018-12-01T01:20:02.194Z,998.93
2018-12-01T01:25:01.471Z,998.93
2018-12-01T01:30:01.738Z,998.99
2018-12-01T01:35:02.033Z,999.02
2018-12-01T01:40:01.453Z,998.93
2018-12-01T01:45:01.729Z,998.89
2018-12-01T01:50:02.054Z,998.91
2018-12-01T01:55:01.340Z,998.89
2018-12-01T02:00:01.653Z,998.86
2018-12-01T02:05:02.089Z,998.8
2018-12-01T02:10:01.400Z,998.79
2018-12-01T02:15:01.681Z,998.74
2018-12-01T02:20:01.980Z,998.72
2018-12-01T02:25:02.256Z,998.68
2018-12-01T02:30:01.608Z,998.64
2018-12-01T02:35:02.091Z,998.65
2018-12-01T02:40:02.047Z,998.67
2018-12-01T02:45:01.302Z,998.64
2018-12-01T02:50:01.616Z,998.61
2018-12-01T02:55:01.937Z,998.59
2018-12-01T03:00:02.172Z,998.59
2018-12-01T03:05:01.421Z,998.59
2018-12-01T03:10:01.427Z,998.62
2018-12-01T03:15:01.746Z,998.62
2018-12-01T03:20:02.013Z,998.62
2018-12-01T03:25:01.254Z,998.69
2018-12-01T03:30:01.502Z,998.73
2018-12-01T03:35:01.770Z,998.78
2018-12-01T03:40:01.374Z,998.74
2018-12-01T03:45:01.634Z,998.74
2018-12-01T03:50:01.910Z,998.7
2018-12-01T03:55:02.152Z,998.61
2018-12-01T04:00:01.401Z,998.6
2018-12-01T04:05:01.677Z,998.48
2018-12-01T04:10:01.921Z,998.53
2018-12-01T04:15:02.194Z,998.6
2018-12-01T04:20:01.451Z,998.7
2018-12-01T04:25:01.667Z,998.77
2018-12-01T04:30:01.910Z,998.8
2018-12-01T04:35:02.162Z,998.83
2018-12-01T04:40:01.430Z,998.95
2018-12-01T04:45:01.695Z,999.06
2018-12-01T04:50:01.963Z,999.04
2018-12-01T04:55:02.206Z,999.15
2018-12-01T05:00:01.483Z,999.13
2018-12-01T05:05:01.801Z,999.07
2018-12-01T05:10:02.087Z,999.17
2018-12-01T05:15:01.388Z,999.02
2018-12-01T05:20:01.662Z,998.97
2018-12-01T05:25:01.911Z,998.98
2018-12-01T05:30:02.155Z,998.94
2018-12-01T05:35:01.708Z,999.01
2018-12-01T05:40:02.011Z,999.06
2018-12-01T05:45:01.298Z,999
2018-12-01T05:50:01.603Z,999.07
2018-12-01T05:55:01.857Z,999.11
2018-12-01T06:00:02.078Z,999.12
2018-12-01T06:05:01.342Z,999.09
2018-12-01T06:10:01.674Z,999.1
2018-12-01T06:15:01.968Z,999.04
2018-12-01T06:20:02.204Z,999.02
2018-12-01T06:25:01.483Z,998.93
2018-12-01T06:30:01.789Z,998.96
2018-12-01T06:35:02.028Z,998.92
2018-12-01T06:40:01.306Z,998.94
2018-12-01T06:45:01.583Z,998.87
2018-12-01T06:50:01.906Z,998.84
2018-12-01T06:55:02.264Z,998.87
2018-12-01T07:00:01.512Z,998.88
2018-12-01T07:05:01.810Z,998.88
2018-12-01T07:10:02.093Z,998.8
2018-12-01T07:15:01.385Z,998.79
2018-12-01T07:20:01.673Z,998.79
2018-12-01T07:25:01.945Z,998.75
2018-12-01T07:30:02.184Z,998.79
2018-12-01T07:35:01.491Z,998.75
2018-12-01T07:40:01.761Z,998.66
2018-12-01T07:45:01.999Z,998.72
2018-12-01T07:50:01.281Z,998.7
2018-12-01T07:55:01.565Z,998.69
2018-12-01T08:00:01.812Z,998.7
2018-12-01T08:05:02.096Z,998.73
2018-12-01T08:10:01.382Z,998.82
2018-12-01T08:15:01.677Z,998.8
2018-12-01T08:20:01.942Z,998.86
2018-12-01T08:25:02.178Z,998.86
2018-12-01T08:30:01.423Z,998.84
2018-12-01T08:35:01.726Z,998.87
2018-12-01T08:40:01.981Z,999
2018-12-01T08:45:02.259Z,999.13
2018-12-01T08:50:01.546Z,999.09
2018-12-01T08:55:01.827Z,999.09
2018-12-01T09:00:02.073Z,999.1
2018-12-01T09:05:01.377Z,999.1
2018-12-01T09:10:01.685Z,999.15
2018-12-01T09:15:01.944Z,999.17
2018-12-01T09:20:02.202Z,999.18
2018-12-01T09:25:01.465Z,999.25
2018-12-01T09:30:01.746Z,999.17
2018-12-01T09:35:02.042Z,999.19
2018-12-01T09:40:01.305Z,999.13
2018-12-01T09:45:01.604Z,999.09
2018-12-01T09:50:01.878Z,999.02
2018-12-01T09:55:02.122Z,998.9
2018-12-01T10:00:01.394Z,998.95
2018-12-01T10:05:01.733Z,998.91
2018-12-01T10:10:02.114Z,998.9
2018-12-01T10:15:01.409Z,998.88
2018-12-01T10:20:01.695Z,998.82
2018-12-01T10:25:01.981Z,998.72
2018-12-01T10:30:02.207Z,998.81
2018-12-01T10:35:01.505Z,998.85
2018-12-01T10:40:01.787Z,998.92
2018-12-01T10:45:02.054Z,998.82
2018-12-01T10:50:01.328Z,998.78
2018-12-01T10:55:01.611Z,998.82
2018-12-01T11:00:01.917Z,998.75
2018-12-01T11:05:02.154Z,998.72
2018-12-01T11:10:01.446Z,998.63
2018-12-01T11:15:01.734Z,998.48
2018-12-01T11:20:01.997Z,998.45
2018-12-01T11:25:01.269Z,998.39
2018-12-01T11:30:01.550Z,998.34
2018-12-01T11:35:01.803Z,998.24
2018-12-01T11:40:02.054Z,998.15
2018-12-01T11:45:01.330Z,998.03
2018-12-01T11:50:01.603Z,997.95
2018-12-01T11:55:01.920Z,997.91
2018-12-01T12:00:02.162Z,997.78
2018-12-01T12:05:01.491Z,997.68
2018-12-01T12:10:01.779Z,997.62
2018-12-01T12:15:02.066Z,997.49
2018-12-01T12:20:01.344Z,997.55
2018-12-01T12:25:01.565Z,997.55
2018-12-01T12:30:01.820Z,997.56
2018-12-01T12:35:02.074Z,997.65
2018-12-01T12:40:01.362Z,997.6
2018-12-01T12:45:01.643Z,997.62
2018-12-01T12:50:01.910Z,997.55
2018-12-01T12:55:02.149Z,997.45
2018-12-01T13:00:01.449Z,997.33
2018-12-01T13:05:01.766Z,997.28
2018-12-01T13:10:02.018Z,997.27
2018-12-01T13:15:01.270Z,997.13
2018-12-01T13:20:01.547Z,996.99
2018-12-01T13:25:01.782Z,996.98
2018-12-01T13:30:02.027Z,997.05
2018-12-01T13:35:01.305Z,997.06
2018-12-01T13:40:01.579Z,997.07
2018-12-01T13:45:01.881Z,997.03
2018-12-01T13:50:02.144Z,996.93
2018-12-01T13:55:01.500Z,996.82
2018-12-01T14:00:01.787Z,996.87
2018-12-01T14:05:02.062Z,996.88
2018-12-01T14:10:01.341Z,996.66
2018-12-01T14:15:01.622Z,996.57
2018-12-01T14:20:01.949Z,996.57
2018-12-01T14:25:01.347Z,996.52
2018-12-01T14:30:01.626Z,996.47
2018-12-01T14:35:01.938Z,996.43
2018-12-01T14:40:02.176Z,996.46
2018-12-01T14:45:01.441Z,996.34
2018-12-01T14:50:01.753Z,996.34
2018-12-01T14:55:02.111Z,996.24
2018-12-01T15:00:01.557Z,996.25
2018-12-01T15:05:02.023Z,996.26
2018-12-01T15:10:01.301Z,996.23
2018-12-01T15:15:01.651Z,996.27
2018-12-01T15:20:01.998Z,996.26
2018-12-01T15:25:01.322Z,996.18
2018-12-01T15:30:01.603Z,996.22
2018-12-01T15:35:01.907Z,996.21
2018-12-01T15:40:02.154Z,996.21
2018-12-01T15:45:01.417Z,996.12
2018-12-01T15:50:01.691Z,996.13
2018-12-01T15:55:01.947Z,996.04
2018-12-01T16:00:02.162Z,995.88
2018-12-01T16:05:01.447Z,995.82
2018-12-01T16:10:01.720Z,995.71
2018-12-01T16:15:01.987Z,995.59
2018-12-01T16:20:01.354Z,995.47
2018-12-01T16:25:01.705Z,995.28
2018-12-01T16:30:01.972Z,995.24
2018-12-01T16:35:02.263Z,995.18
2018-12-01T16:40:01.511Z,995.16
2018-12-01T16:45:01.728Z,995.09
2018-12-01T16:50:01.954Z,994.96
2018-12-01T16:55:02.162Z,994.88
2018-12-01T17:00:01.450Z,994.87
2018-12-01T17:05:01.716Z,994.74
2018-12-01T17:10:01.961Z,994.66
2018-12-01T17:15:02.184Z,994.54
2018-12-01T17:20:01.458Z,994.56
2018-12-01T17:25:01.713Z,994.48
2018-12-01T17:30:01.990Z,994.52
2018-12-01T17:35:01.302Z,994.42
2018-12-01T17:40:01.560Z,994.47
2018-12-01T17:45:01.818Z,994.42
2018-12-01T17:50:02.096Z,994.4
2018-12-01T17:55:01.351Z,994.17
2018-12-01T18:00:01.654Z,993.92
2018-12-01T18:05:01.907Z,993.77
2018-12-01T18:10:02.127Z,993.69
2018-12-01T18:15:01.427Z,993.51
2018-12-01T18:20:01.699Z,993.44
2018-12-01T18:25:01.917Z,993.24
2018-12-01T18:30:02.157Z,993.16
2018-12-01T18:35:01.466Z,993.12
2018-12-01T18:40:01.719Z,993.05
2018-12-01T18:45:01.950Z,993.1
2018-12-01T18:50:02.177Z,993.01
2018-12-01T18:55:01.446Z,993.05
2018-12-01T19:00:01.691Z,993.12
2018-12-01T19:05:02.002Z,993.06
2018-12-01T19:10:01.260Z,992.99
2018-12-01T19:15:01.533Z,992.91
2018-12-01T19:20:01.817Z,992.78
2018-12-01T19:25:02.080Z,992.73
2018-12-01T19:30:05.645Z,992.72
2018-12-01T19:35:01.899Z,992.65
2018-12-01T19:40:02.143Z,992.67
2018-12-01T19:45:01.424Z,992.72
2018-12-01T19:50:01.669Z,992.67
2018-12-01T19:55:01.903Z,992.6
2018-12-01T20:00:02.186Z,992.41
2018-12-01T20:05:01.495Z,992.41
2018-12-01T20:10:01.743Z,992.37
2018-12-01T20:15:01.996Z,992.28
2018-12-01T20:20:01.337Z,992.28
2018-12-01T20:25:01.608Z,992.23
2018-12-01T20:30:01.874Z,992.17
2018-12-01T20:35:02.169Z,992.15
2018-12-01T20:40:01.455Z,992.15
2018-12-01T20:45:01.723Z,992.18
2018-12-01T20:50:02.047Z,992.17
2018-12-01T20:55:01.322Z,992.07
2018-12-01T21:00:01.601Z,992.06
2018-12-01T21:05:01.851Z,992.11
2018-12-01T21:10:02.251Z,991.93
2018-12-01T21:15:01.744Z,991.9
2018-12-01T21:20:01.991Z,991.84
2018-12-01T21:25:02.209Z,991.73
2018-12-01T21:30:01.448Z,991.66
2018-12-01T21:35:01.721Z,991.6
2018-12-01T21:40:02.014Z,991.59
2018-12-01T21:45:01.274Z,991.57
2018-12-01T21:50:01.542Z,991.46
2018-12-01T21:55:01.815Z,991.43
2018-12-01T22:00:02.110Z,991.38
2018-12-01T22:05:01.381Z,991.29
2018-12-01T22:10:01.643Z,991.24
2018-12-01T22:15:01.915Z,991.21
2018-12-01T22:20:02.162Z,991.16
2018-12-01T22:25:01.412Z,991.14
2018-12-01T22:30:01.690Z,991.04
2018-12-01T22:35:01.996Z,991.04
2018-12-01T22:40:01.269Z,990.98
2018-12-01T22:45:01.538Z,991.02
2018-12-01T22:50:01.827Z,990.91
2018-12-01T22:55:02.169Z,990.87
2018-12-01T23:00:01.382Z,990.83
2018-12-01T23:05:01.663Z,990.78
2018-12-01T23:10:01.906Z,990.8
2018-12-01T23:15:02.189Z,990.74
2018-12-01T23:20:01.457Z,990.65
2018-12-01T23:25:01.677Z,990.65
2018-12-01T23:30:01.909Z,990.6
2018-12-01T23:35:02.209Z,990.47
2018-12-01T23:40:01.485Z,990.4
2018-12-01T23:45:01.776Z,990.34
2018-12-01T23:50:02.030Z,990.22
2018-12-01T23:55:01.313Z,990.17
